createdAt,value
2018-09-09T00:01:33.900Z,83.30
2018-09-09T00:04:03.399Z,84.50
2018-09-09T00:06:32.364Z,85.70
2018-09-09T00:09:01.530Z,85.40
2018-09-09T00:11:30.913Z,85.50
2018-09-09T00:13:59.964Z,85.80
2018-09-09T00:16:29.045Z,85.20
2018-09-09T00:18:58.566Z,85.00
2018-09-09T00:21:27.536Z,85.20
2018-09-09T00:23:56.535Z,85.80
2018-09-09T00:26:26.314Z,86.40
2018-09-09T00:28:55.297Z,86.50
2018-09-09T00:31:24.285Z,86.30
2018-09-09T00:33:53.728Z,86.60
2018-09-09T00:36:22.723Z,87.00
2018-09-09T00:38:51.853Z,87.20
2018-09-09T00:41:21.009Z,87.10
2018-09-09T00:43:50.090Z,87.40
2018-09-09T00:46:23.165Z,88.00
2018-09-09T00:48:57.453Z,88.30
2018-09-09T00:51:38.885Z,88.60
2018-09-09T00:54:07.905Z,89.20
2018-09-09T00:56:36.948Z,89.10
2018-09-09T00:59:06.068Z,89.30
2018-09-09T01:01:35.096Z,89.00
2018-09-09T01:04:04.085Z,88.60
2018-09-09T01:06:33.547Z,88.30
2018-09-09T01:09:02.595Z,88.30
2018-09-09T01:11:31.625Z,88.20
2018-09-09T01:14:00.770Z,88.20
2018-09-09T01:16:29.767Z,88.30
2018-09-09T01:18:58.804Z,89.40
2018-09-09T01:21:28.188Z,90.30
2018-09-09T01:23:57.175Z,90.70
2018-09-09T01:26:26.213Z,90.80
2018-09-09T01:28:55.471Z,91.00
2018-09-09T01:31:24.511Z,90.60
2018-09-09T01:33:56.615Z,90.60
2018-09-09T01:36:25.752Z,90.50
2018-09-09T01:38:54.776Z,90.30
2018-09-09T01:41:23.836Z,90.20
2018-09-09T01:43:52.929Z,90.30
2018-09-09T01:46:22.206Z,90.20
2018-09-09T01:48:51.204Z,90.10
2018-09-09T01:51:20.383Z,89.70
2018-09-09T01:53:49.731Z,90.00
2018-09-09T01:56:18.733Z,90.20
2018-09-09T01:58:47.797Z,90.30
2018-09-09T02:01:16.861Z,90.40
2018-09-09T02:03:45.958Z,90.60
2018-09-09T02:06:14.970Z,90.70
2018-09-09T02:08:44.664Z,90.60
2018-09-09T02:11:14.575Z,91.00
2018-09-09T02:13:43.566Z,91.50
2018-09-09T02:16:12.611Z,91.60
2018-09-09T02:18:41.692Z,91.50
2018-09-09T02:21:10.689Z,91.10
2018-09-09T02:23:40.307Z,91.00
2018-09-09T02:26:09.305Z,90.70
2018-09-09T02:28:38.350Z,90.70
2018-09-09T02:31:07.821Z,90.70
2018-09-09T02:33:36.828Z,90.60
2018-09-09T02:36:05.986Z,90.70
2018-09-09T02:38:35.028Z,90.80
2018-09-09T02:41:04.052Z,91.10
2018-09-09T02:43:33.147Z,91.30
2018-09-09T02:46:02.099Z,91.60
2018-09-09T02:48:31.127Z,91.60
2018-09-09T02:51:00.485Z,91.30
2018-09-09T02:53:29.481Z,91.10
2018-09-09T02:55:58.537Z,90.90
2018-09-09T02:58:27.944Z,90.70
2018-09-09T03:00:56.957Z,90.80
2018-09-09T03:03:25.981Z,90.60
2018-09-09T03:05:55.043Z,90.40
2018-09-09T03:08:24.020Z,90.30
2018-09-09T03:10:58.734Z,90.20
2018-09-09T03:13:27.715Z,90.50
2018-09-09T03:15:56.717Z,90.50
2018-09-09T03:18:25.954Z,90.50
2018-09-09T03:20:55.049Z,90.50
2018-09-09T03:23:24.164Z,90.60
2018-09-09T03:25:53.304Z,90.50
2018-09-09T03:28:22.284Z,90.30
2018-09-09T03:30:51.326Z,89.90
2018-09-09T03:33:20.524Z,89.70
2018-09-09T03:35:49.577Z,89.00
2018-09-09T03:38:18.735Z,89.00
2018-09-09T03:40:47.829Z,88.90
2018-09-09T03:43:16.929Z,89.30
2018-09-09T03:45:45.949Z,90.10
2018-09-09T03:48:15.019Z,90.10
2018-09-09T03:50:44.361Z,90.00
2018-09-09T03:53:13.412Z,90.00
2018-09-09T03:55:42.409Z,89.70
2018-09-09T03:58:11.469Z,89.60
2018-09-09T04:00:40.470Z,89.00
2018-09-09T04:03:09.438Z,88.70
2018-09-09T04:05:38.472Z,88.50
2018-09-09T04:08:07.880Z,89.10
2018-09-09T04:10:36.892Z,89.40
2018-09-09T04:13:06.031Z,88.80
2018-09-09T04:15:35.554Z,88.10
2018-09-09T04:18:04.675Z,87.20
2018-09-09T04:20:34.038Z,86.60
2018-09-09T04:23:03.091Z,86.50
2018-09-09T04:25:32.105Z,87.10
2018-09-09T04:28:01.099Z,87.90
2018-09-09T04:30:30.148Z,88.10
2018-09-09T04:32:59.211Z,88.10
2018-09-09T04:35:28.698Z,87.60
2018-09-09T04:37:58.065Z,87.70
2018-09-09T04:40:27.152Z,88.20
2018-09-09T04:42:56.116Z,88.40
2018-09-09T04:45:25.184Z,88.70
2018-09-09T04:47:55.054Z,88.70
2018-09-09T04:50:24.113Z,89.20
2018-09-09T04:52:53.149Z,90.30
2018-09-09T04:55:22.172Z,90.60
2018-09-09T04:57:51.519Z,90.70
2018-09-09T05:00:20.548Z,90.60
2018-09-09T05:02:49.686Z,90.60
2018-09-09T05:05:18.815Z,90.70
2018-09-09T05:07:47.853Z,91.00
2018-09-09T05:10:17.202Z,91.30
2018-09-09T05:12:46.687Z,91.60
2018-09-09T05:15:15.702Z,91.40
2018-09-09T05:17:44.713Z,91.10
2018-09-09T05:20:14.217Z,90.80
2018-09-09T05:22:43.692Z,90.50
2018-09-09T05:25:12.708Z,90.20
2018-09-09T05:27:41.956Z,89.70
2018-09-09T05:30:10.972Z,89.30
2018-09-09T05:32:40.125Z,88.60
2018-09-09T05:35:09.173Z,87.80
2018-09-09T05:37:38.793Z,86.60
2018-09-09T05:40:07.922Z,85.20
2018-09-09T05:42:36.940Z,83.40
2018-09-09T05:45:06.531Z,84.00
2018-09-09T05:47:35.533Z,83.00
2018-09-09T05:50:04.593Z,84.10
2018-09-09T05:52:34.379Z,83.40
2018-09-09T05:55:03.456Z,83.00
2018-09-09T05:57:32.482Z,83.20
2018-09-09T06:00:01.606Z,84.00
2018-09-09T06:02:30.580Z,84.20
2018-09-09T06:04:59.585Z,83.50
2018-09-09T06:07:29.015Z,83.40
2018-09-09T06:09:58.038Z,83.60
2018-09-09T06:12:27.048Z,83.50
2018-09-09T06:14:56.107Z,84.40
2018-09-09T06:17:25.090Z,84.40
2018-09-09T06:19:54.847Z,83.70
2018-09-09T06:22:24.202Z,84.20
2018-09-09T06:24:53.332Z,84.10
2018-09-09T06:27:22.361Z,83.50
2018-09-09T06:29:51.470Z,82.10
2018-09-09T06:32:20.624Z,81.30
2018-09-09T06:34:49.765Z,80.00
2018-09-09T06:37:25.522Z,79.20
2018-09-09T06:39:54.535Z,79.40
2018-09-09T06:42:23.524Z,79.90
2018-09-09T06:44:52.810Z,80.20
2018-09-09T06:47:21.840Z,79.60
2018-09-09T06:49:50.953Z,79.00
2018-09-09T06:52:20.501Z,79.50
2018-09-09T06:54:49.488Z,79.40
2018-09-09T06:57:18.533Z,79.30
2018-09-09T06:59:49.317Z,79.30
2018-09-09T07:02:18.348Z,78.90
2018-09-09T07:04:47.348Z,78.40
2018-09-09T07:07:16.372Z,78.30
2018-09-09T07:09:45.457Z,76.80
2018-09-09T07:12:14.501Z,75.70
2018-09-09T07:14:43.828Z,75.20
2018-09-09T07:17:12.886Z,76.20
2018-09-09T07:19:43.489Z,76.30
2018-09-09T07:22:12.564Z,75.70
2018-09-09T07:24:41.604Z,75.30
2018-09-09T07:27:10.645Z,75.20
2018-09-09T07:29:46.318Z,75.60
2018-09-09T07:32:15.393Z,74.50
2018-09-09T07:34:44.458Z,73.40
2018-09-09T07:37:13.469Z,71.80
2018-09-09T07:39:49.417Z,71.10
2018-09-09T07:42:19.585Z,68.20
2018-09-09T07:44:49.808Z,66.30
2018-09-09T07:47:19.006Z,65.20
2018-09-09T07:49:48.013Z,64.50
2018-09-09T07:52:17.024Z,62.50
2018-09-09T07:54:46.060Z,59.80
2018-09-09T07:57:15.166Z,56.00
2018-09-09T07:59:44.147Z,53.30
2018-09-09T08:02:13.234Z,48.40
2018-09-09T08:04:43.074Z,50.30
2018-09-09T08:07:12.099Z,49.80
2018-09-09T08:09:41.143Z,49.80
2018-09-09T08:12:10.244Z,48.10
2018-09-09T08:14:39.237Z,46.50
2018-09-09T08:17:08.477Z,46.40
2018-09-09T08:19:37.502Z,45.00
2018-09-09T08:22:06.632Z,49.20
2018-09-09T08:24:36.354Z,51.20
2018-09-09T08:27:05.657Z,52.50
2018-09-09T08:29:34.677Z,54.10
2018-09-09T08:32:03.788Z,54.00
2018-09-09T08:34:32.895Z,54.40
2018-09-09T08:37:01.924Z,54.30
2018-09-09T08:39:30.929Z,55.50
2018-09-09T08:41:59.954Z,56.30
2018-09-09T08:44:28.990Z,55.50
2018-09-09T08:46:58.015Z,53.30
2018-09-09T08:49:27.805Z,52.40
2018-09-09T08:51:56.907Z,51.50
2018-09-09T08:54:27.853Z,49.60
2018-09-09T08:56:56.921Z,47.80
2018-09-09T08:59:26.321Z,47.60
2018-09-09T09:01:56.238Z,46.10
2018-09-09T09:04:25.320Z,46.30
2018-09-09T09:06:54.413Z,48.10
2018-09-09T09:09:23.463Z,49.40
2018-09-09T09:11:52.524Z,49.30
2018-09-09T09:14:21.649Z,47.70
2018-09-09T09:16:50.772Z,48.30
2018-09-09T09:19:19.905Z,48.60
2018-09-09T09:21:48.974Z,49.70
2018-09-09T09:24:18.326Z,51.00
2018-09-09T09:26:47.357Z,50.10
2018-09-09T09:29:16.408Z,51.80
2018-09-09T09:31:45.467Z,52.50
2018-09-09T09:34:14.484Z,53.70
2018-09-09T09:36:43.562Z,54.80
2018-09-09T09:39:12.683Z,55.00
2018-09-09T09:41:41.665Z,54.40
2018-09-09T09:44:10.736Z,54.20
2018-09-09T09:46:39.784Z,49.80
2018-09-09T09:49:08.924Z,45.60
2018-09-09T09:51:38.001Z,43.10
2018-09-09T09:54:07.132Z,41.90
2018-09-09T09:56:36.229Z,41.30
2018-09-09T09:59:05.371Z,41.00
2018-09-09T10:01:34.431Z,41.80
2018-09-09T10:04:03.458Z,43.40
2018-09-09T10:06:32.889Z,43.20
2018-09-09T10:09:01.997Z,41.80
2018-09-09T10:11:31.029Z,43.50
2018-09-09T10:14:00.088Z,41.40
2018-09-09T10:16:29.090Z,42.10
2018-09-09T10:18:58.194Z,42.30
2018-09-09T10:21:27.274Z,41.40
2018-09-09T10:23:56.594Z,42.00
2018-09-09T10:26:25.543Z,41.90
2018-09-09T10:28:54.556Z,43.30
2018-09-09T10:31:23.632Z,43.80
2018-09-09T10:33:52.620Z,43.20
2018-09-09T10:36:21.698Z,42.40
2018-09-09T10:38:50.808Z,42.10
2018-09-09T10:41:19.890Z,42.20
2018-09-09T10:43:49.013Z,40.70
2018-09-09T10:46:18.202Z,40.10
2018-09-09T10:48:47.165Z,40.10
2018-09-09T10:51:16.470Z,39.80
2018-09-09T10:53:45.467Z,39.90
2018-09-09T10:56:14.508Z,38.50
2018-09-09T10:58:43.533Z,38.80
2018-09-09T11:01:12.684Z,37.90
2018-09-09T11:03:48.350Z,37.50
2018-09-09T11:06:17.407Z,39.40
2018-09-09T11:08:46.461Z,38.00
2018-09-09T11:11:15.531Z,39.00
2018-09-09T11:13:44.829Z,40.00
2018-09-09T11:16:13.873Z,41.50
2018-09-09T11:18:42.869Z,41.90
2018-09-09T11:21:12.147Z,40.10
2018-09-09T11:23:41.229Z,41.60
2018-09-09T11:26:10.247Z,40.80
2018-09-09T11:28:39.341Z,39.80
2018-09-09T11:31:08.460Z,40.70
2018-09-09T11:33:37.502Z,40.80
2018-09-09T11:36:06.577Z,41.60
2018-09-09T11:38:35.641Z,42.00
2018-09-09T11:41:04.624Z,41.70
2018-09-09T11:43:34.328Z,42.50
2018-09-09T11:46:04.061Z,41.80
2018-09-09T11:48:33.411Z,40.80
2018-09-09T11:51:02.382Z,39.00
2018-09-09T11:53:31.381Z,39.70
2018-09-09T11:56:00.531Z,40.00
2018-09-09T11:58:29.544Z,41.30
2018-09-09T12:00:58.592Z,41.30
2018-09-09T12:03:27.649Z,41.10
2018-09-09T12:05:56.704Z,42.30
2018-09-09T12:08:25.797Z,42.30
2018-09-09T12:10:54.917Z,43.50
2018-09-09T12:13:24.108Z,43.30
2018-09-09T12:15:53.210Z,43.50
2018-09-09T12:18:22.613Z,43.40
2018-09-09T12:20:51.639Z,44.20
2018-09-09T12:23:20.700Z,43.50
2018-09-09T12:25:49.746Z,43.50
2018-09-09T12:28:19.720Z,43.10
2018-09-09T12:30:49.185Z,44.10
2018-09-09T12:33:19.364Z,44.50
2018-09-09T12:35:48.421Z,44.70
2018-09-09T12:38:17.450Z,43.90
2018-09-09T12:40:46.717Z,44.70
2018-09-09T12:43:21.386Z,44.50
2018-09-09T12:45:55.756Z,44.90
2018-09-09T12:48:30.069Z,45.30
2018-09-09T12:51:00.354Z,44.50
2018-09-09T12:53:29.396Z,44.70
2018-09-09T12:55:59.046Z,44.90
2018-09-09T12:58:28.093Z,45.60
2018-09-09T13:00:57.125Z,44.20
2018-09-09T13:03:26.237Z,44.20
2018-09-09T13:05:55.280Z,45.00
2018-09-09T13:08:24.304Z,44.90
2018-09-09T13:10:53.376Z,44.80
2018-09-09T13:13:22.576Z,43.90
2018-09-09T13:15:51.605Z,42.70
2018-09-09T13:18:20.704Z,42.10
2018-09-09T13:20:49.727Z,42.10
2018-09-09T13:23:18.803Z,42.30
2018-09-09T13:25:47.802Z,43.10
2018-09-09T13:28:16.921Z,43.80
2018-09-09T13:30:45.936Z,43.00
2018-09-09T13:33:14.992Z,42.90
2018-09-09T13:35:43.973Z,42.60
2018-09-09T13:38:13.246Z,42.00
2018-09-09T13:40:42.287Z,42.10
2018-09-09T13:43:11.320Z,42.20
2018-09-09T13:45:40.406Z,42.30
2018-09-09T13:48:09.812Z,42.30
2018-09-09T13:50:38.812Z,43.10
2018-09-09T13:53:07.825Z,42.30
2018-09-09T13:55:37.134Z,43.00
2018-09-09T13:58:06.223Z,43.70
2018-09-09T14:00:35.227Z,44.10
2018-09-09T14:03:04.599Z,43.80
2018-09-09T14:05:33.609Z,43.60
2018-09-09T14:08:02.672Z,43.00
2018-09-09T14:10:31.713Z,43.00
2018-09-09T14:13:01.146Z,42.80
2018-09-09T14:15:30.169Z,42.40
2018-09-09T14:17:59.289Z,42.40
2018-09-09T14:20:28.349Z,41.70
2018-09-09T14:22:57.382Z,41.30
2018-09-09T14:25:28.126Z,41.30
2018-09-09T14:27:57.226Z,41.70
2018-09-09T14:30:26.217Z,42.60
2018-09-09T14:32:55.281Z,43.20
2018-09-09T14:35:24.261Z,42.70
2018-09-09T14:37:53.282Z,42.80
2018-09-09T14:40:22.355Z,43.00
2018-09-09T14:42:51.338Z,43.60
2018-09-09T14:45:20.469Z,43.90
2018-09-09T14:47:49.456Z,42.50
2018-09-09T14:50:18.808Z,42.60
2018-09-09T14:52:47.800Z,42.60
2018-09-09T14:55:16.815Z,42.80
2018-09-09T14:57:45.872Z,43.30
2018-09-09T15:00:15.331Z,43.00
2018-09-09T15:02:44.404Z,43.00
2018-09-09T15:05:13.496Z,43.60
2018-09-09T15:07:42.522Z,43.60
2018-09-09T15:10:11.568Z,44.30
2018-09-09T15:12:40.589Z,43.80
2018-09-09T15:15:09.631Z,43.50
2018-09-09T15:17:38.674Z,43.60
2018-09-09T15:20:07.797Z,43.70
2018-09-09T15:22:43.298Z,43.70
2018-09-09T15:25:12.301Z,44.00
2018-09-09T15:27:41.339Z,43.70
2018-09-09T15:30:10.318Z,43.20
2018-09-09T15:32:39.430Z,43.70
2018-09-09T15:35:08.539Z,43.00
2018-09-09T15:37:37.593Z,43.20
2018-09-09T15:40:06.729Z,43.50
2018-09-09T15:42:35.667Z,43.80
2018-09-09T15:45:04.708Z,43.40
2018-09-09T15:47:33.777Z,43.00
2018-09-09T15:50:03.068Z,43.10
2018-09-09T15:52:32.102Z,42.80
2018-09-09T15:55:01.112Z,43.00
2018-09-09T15:57:30.708Z,42.20
2018-09-09T15:59:59.766Z,43.30
2018-09-09T16:02:28.752Z,43.60
2018-09-09T16:04:57.744Z,43.70
2018-09-09T16:07:26.789Z,44.00
2018-09-09T16:09:55.861Z,44.30
2018-09-09T16:12:24.828Z,44.30
2018-09-09T16:14:53.819Z,44.70
2018-09-09T16:17:22.904Z,45.10
2018-09-09T16:19:52.164Z,45.10
2018-09-09T16:22:21.221Z,45.70
2018-09-09T16:24:50.249Z,46.20
2018-09-09T16:27:19.284Z,46.50
2018-09-09T16:29:48.317Z,46.40
2018-09-09T16:32:17.416Z,46.70
2018-09-09T16:34:46.453Z,46.20
2018-09-09T16:37:15.471Z,45.70
2018-09-09T16:39:44.617Z,46.00
2018-09-09T16:42:13.564Z,45.70
2018-09-09T16:44:42.627Z,46.00
2018-09-09T16:47:11.612Z,46.20
2018-09-09T16:49:40.681Z,45.80
2018-09-09T16:52:09.745Z,47.20
2018-09-09T16:54:38.760Z,47.80
2018-09-09T16:57:07.780Z,48.20
2018-09-09T16:59:36.772Z,47.60
2018-09-09T17:02:05.784Z,48.00
2018-09-09T17:04:34.761Z,48.20
2018-09-09T17:07:03.930Z,48.30
2018-09-09T17:09:32.958Z,48.40
2018-09-09T17:12:02.045Z,49.00
2018-09-09T17:14:31.070Z,49.30
2018-09-09T17:17:00.121Z,49.60
2018-09-09T17:19:29.172Z,50.00
2018-09-09T17:21:58.232Z,50.60
2018-09-09T17:24:27.224Z,51.10
2018-09-09T17:26:56.241Z,50.90
2018-09-09T17:29:25.265Z,51.20
2018-09-09T17:31:54.600Z,51.50
2018-09-09T17:34:23.618Z,52.20
2018-09-09T17:36:52.761Z,52.80
2018-09-09T17:39:21.813Z,53.00
2018-09-09T17:41:50.845Z,53.10
2018-09-09T17:44:19.879Z,53.50
2018-09-09T17:46:48.957Z,53.60
2018-09-09T17:49:17.989Z,53.90
2018-09-09T17:51:46.980Z,54.10
2018-09-09T17:54:16.015Z,54.40
2018-09-09T17:56:45.225Z,54.60
2018-09-09T17:59:14.231Z,54.90
2018-09-09T18:01:43.234Z,55.00
2018-09-09T18:04:12.250Z,55.00
2018-09-09T18:06:41.269Z,55.20
2018-09-09T18:09:10.825Z,55.50
2018-09-09T18:11:40.119Z,55.90
2018-09-09T18:14:09.137Z,55.90
2018-09-09T18:16:38.161Z,56.00
2018-09-09T18:19:07.152Z,56.20
2018-09-09T18:21:36.272Z,56.70
2018-09-09T18:24:05.283Z,56.70
2018-09-09T18:26:34.252Z,57.00
2018-09-09T18:29:03.298Z,57.00
2018-09-09T18:31:32.361Z,57.10
2018-09-09T18:34:01.369Z,57.00
2018-09-09T18:36:30.397Z,57.20
2018-09-09T18:39:00.540Z,57.30
2018-09-09T18:41:29.446Z,57.70
2018-09-09T18:43:58.456Z,58.00
2018-09-09T18:46:27.570Z,58.30
2018-09-09T18:48:56.764Z,58.60
2018-09-09T18:51:25.767Z,58.80
2018-09-09T18:53:54.800Z,59.10
2018-09-09T18:56:23.862Z,59.30
2018-09-09T18:58:52.913Z,59.30
2018-09-09T19:01:22.018Z,59.50
2018-09-09T19:03:51.102Z,59.60
2018-09-09T19:06:20.277Z,60.80
2018-09-09T19:08:49.321Z,61.70
2018-09-09T19:11:18.309Z,61.70
2018-09-09T19:13:47.666Z,62.10
2018-09-09T19:16:16.648Z,62.10
2018-09-09T19:18:45.676Z,62.50
2018-09-09T19:21:14.748Z,63.40
2018-09-09T19:23:43.800Z,63.90
2018-09-09T19:26:12.832Z,63.90
2018-09-09T19:28:41.847Z,63.90
2018-09-09T19:31:10.880Z,63.90
2018-09-09T19:33:39.953Z,64.60
2018-09-09T19:36:08.987Z,65.00
2018-09-09T19:38:38.032Z,65.30
2018-09-09T19:41:07.057Z,65.20
2018-09-09T19:43:36.880Z,65.30
2018-09-09T19:46:05.897Z,65.60
2018-09-09T19:48:34.985Z,66.00
2018-09-09T19:51:03.986Z,66.30
2018-09-09T19:53:33.014Z,66.50
2018-09-09T19:56:02.111Z,67.30
2018-09-09T19:58:31.148Z,67.10
2018-09-09T20:01:00.500Z,67.40
2018-09-09T20:03:29.880Z,68.60
2018-09-09T20:05:59.017Z,68.20
2018-09-09T20:08:28.166Z,68.60
2018-09-09T20:10:57.341Z,69.60
2018-09-09T20:13:26.318Z,70.30
2018-09-09T20:15:55.739Z,70.50
2018-09-09T20:18:24.669Z,71.30
2018-09-09T20:20:53.653Z,71.50
2018-09-09T20:23:23.029Z,71.70
2018-09-09T20:25:52.748Z,72.00
2018-09-09T20:28:21.697Z,72.20
2018-09-09T20:30:51.080Z,72.50
2018-09-09T20:33:20.416Z,73.00
2018-09-09T20:35:49.456Z,72.70
2018-09-09T20:38:18.476Z,72.90
2018-09-09T20:40:47.552Z,73.00
2018-09-09T20:43:16.552Z,73.30
2018-09-09T20:45:45.614Z,73.10
2018-09-09T20:48:14.620Z,73.10
2018-09-09T20:50:43.646Z,73.70
2018-09-09T20:53:12.934Z,74.40
2018-09-09T20:55:41.904Z,74.10
2018-09-09T20:58:10.896Z,74.40
2018-09-09T21:00:40.896Z,75.50
2018-09-09T21:03:09.905Z,76.30
2018-09-09T21:05:38.947Z,76.80
2018-09-09T21:08:07.996Z,77.10
2018-09-09T21:10:37.049Z,77.40
2018-09-09T21:13:06.529Z,77.80
2018-09-09T21:15:35.547Z,78.40
2018-09-09T21:18:04.536Z,78.90
2018-09-09T21:20:33.876Z,79.30
2018-09-09T21:23:03.140Z,79.50
2018-09-09T21:25:32.120Z,79.70
2018-09-09T21:28:01.189Z,79.70
2018-09-09T21:30:30.243Z,80.10
2018-09-09T21:32:59.248Z,80.70
2018-09-09T21:35:28.277Z,80.70
2018-09-09T21:37:57.305Z,80.80
2018-09-09T21:40:26.611Z,80.90
2018-09-09T21:42:55.602Z,81.40
2018-09-09T21:45:24.644Z,81.90
2018-09-09T21:47:53.688Z,82.10
2018-09-09T21:50:22.718Z,82.50
2018-09-09T21:52:51.723Z,82.10
2018-09-09T21:55:20.768Z,82.30
2018-09-09T21:57:49.859Z,82.30
2018-09-09T22:00:18.924Z,82.70
2018-09-09T22:02:47.930Z,81.30
2018-09-09T22:05:16.955Z,81.40
2018-09-09T22:07:46.002Z,81.90
2018-09-09T22:10:14.965Z,82.10
2018-09-09T22:12:43.976Z,82.70
2018-09-09T22:15:13.009Z,82.90
2018-09-09T22:17:42.075Z,82.70
2018-09-09T22:20:11.416Z,83.10
2018-09-09T22:22:40.416Z,83.30
2018-09-09T22:25:09.508Z,83.50
2018-09-09T22:27:38.521Z,83.70
2018-09-09T22:30:07.573Z,83.40
2018-09-09T22:32:36.630Z,82.80
2018-09-09T22:35:05.636Z,82.80
2018-09-09T22:37:34.650Z,82.30
2018-09-09T22:40:03.707Z,81.70
2018-09-09T22:42:32.660Z,81.30
2018-09-09T22:45:02.008Z,80.70
2018-09-09T22:47:30.994Z,80.60
2018-09-09T22:49:59.987Z,80.10
2018-09-09T22:52:29.037Z,79.60
2018-09-09T22:54:58.053Z,79.20
2018-09-09T22:57:27.065Z,78.80
2018-09-09T22:59:56.065Z,78.50
2018-09-09T23:02:25.090Z,79.30
2018-09-09T23:04:54.133Z,79.40
2018-09-09T23:07:23.150Z,79.20
2018-09-09T23:09:52.289Z,79.60
2018-09-09T23:12:21.337Z,80.30
2018-09-09T23:14:50.351Z,80.30
2018-09-09T23:17:19.401Z,80.10
2018-09-09T23:19:48.461Z,79.10
2018-09-09T23:22:17.496Z,78.60
2018-09-09T23:24:46.497Z,78.10
2018-09-09T23:27:15.536Z,77.50
2018-09-09T23:29:44.581Z,76.70
2018-09-09T23:32:13.554Z,76.30
2018-09-09T23:34:43.060Z,75.70
2018-09-09T23:37:12.107Z,75.70
2018-09-09T23:39:41.055Z,75.50
2018-09-09T23:42:10.082Z,75.40
2018-09-09T23:44:39.080Z,75.30
2018-09-09T23:47:08.500Z,75.50
2018-09-09T23:49:37.525Z,75.00
2018-09-09T23:52:06.557Z,75.20
2018-09-09T23:54:35.641Z,74.70
2018-09-09T23:57:04.647Z,74.50
2018-09-09T23:59:33.688Z,74.50
